createdAt,value
2023-05-08T00:01:20.405Z,8.60
2023-05-08T00:03:49.364Z,8.60
2023-05-08T00:06:17.906Z,8.62
2023-05-08T00:08:46.218Z,8.56
2023-05-08T00:11:15.970Z,8.53
2023-05-08T00:13:44.283Z,8.52
2023-05-08T00:16:13.110Z,8.51
2023-05-08T00:18:41.572Z,8.42
2023-05-08T00:21:09.898Z,8.35
2023-05-08T00:23:38.198Z,8.33
2023-05-08T00:26:06.879Z,8.27
2023-05-08T00:28:36.602Z,8.26
2023-05-08T00:31:05.120Z,8.25
2023-05-08T00:33:33.447Z,8.24
2023-05-08T00:36:02.337Z,8.28
2023-05-08T00:38:31.928Z,8.23
2023-05-08T00:41:00.552Z,8.20
2023-05-08T00:43:29.192Z,8.17
2023-05-08T00:46:02.236Z,8.03
2023-05-08T00:48:35.036Z,7.95
2023-05-08T00:51:05.781Z,7.94
2023-05-08T00:53:37.089Z,7.93
2023-05-08T00:56:07.067Z,7.90
2023-05-08T00:58:35.669Z,7.85
2023-05-08T01:01:05.795Z,7.84
2023-05-08T01:03:36.297Z,7.80
2023-05-08T01:06:06.544Z,7.77
2023-05-08T01:08:34.968Z,7.77
2023-05-08T01:11:12.709Z,7.73
2023-05-08T01:13:52.646Z,7.70
2023-05-08T01:16:30.318Z,7.74
2023-05-08T01:19:08.340Z,7.72
2023-05-08T01:21:51.537Z,7.67
2023-05-08T01:24:42.982Z,7.67
2023-05-08T01:27:41.783Z,7.69
2023-05-08T01:30:43.660Z,7.63
2023-05-08T01:33:21.922Z,7.51
2023-05-08T01:35:54.218Z,7.49
2023-05-08T01:38:36.601Z,7.46
2023-05-08T01:41:11.638Z,7.47
2023-05-08T01:43:49.567Z,7.48
2023-05-08T01:46:22.875Z,7.48
2023-05-08T01:48:57.390Z,7.38
2023-05-08T01:51:28.502Z,7.25
2023-05-08T01:54:01.779Z,7.16
2023-05-08T01:56:31.440Z,7.11
2023-05-08T01:59:02.552Z,7.06
2023-05-08T02:01:34.435Z,7.00
2023-05-08T02:04:06.722Z,6.98
2023-05-08T02:06:37.154Z,7.01
2023-05-08T02:09:09.105Z,7.07
2023-05-08T02:11:39.107Z,7.13
2023-05-08T02:14:08.771Z,7.15
2023-05-08T02:16:38.727Z,7.19
2023-05-08T02:19:10.449Z,7.23
2023-05-08T02:21:40.648Z,7.20
2023-05-08T02:24:09.869Z,7.20
2023-05-08T02:26:40.535Z,7.19
2023-05-08T02:29:09.903Z,7.19
2023-05-08T02:31:39.854Z,7.20
2023-05-08T02:34:11.949Z,7.16
2023-05-08T02:36:42.010Z,7.10
2023-05-08T02:39:14.960Z,7.06
2023-05-08T02:41:43.368Z,7.04
2023-05-08T02:44:11.971Z,6.99
2023-05-08T02:46:47.149Z,6.97
2023-05-08T02:49:28.848Z,6.98
2023-05-08T02:52:02.741Z,6.97
2023-05-08T02:54:37.740Z,6.92
2023-05-08T02:57:14.289Z,6.89
2023-05-08T02:59:47.186Z,6.85
2023-05-08T03:02:22.840Z,6.84
2023-05-08T03:04:56.633Z,6.80
2023-05-08T03:07:29.439Z,6.82
2023-05-08T03:10:11.747Z,6.79
2023-05-08T03:12:44.438Z,6.78
2023-05-08T03:15:19.274Z,6.74
2023-05-08T03:17:50.031Z,6.75
2023-05-08T03:20:22.379Z,6.73
2023-05-08T03:22:53.370Z,6.70
2023-05-08T03:25:22.375Z,6.70
2023-05-08T03:27:53.244Z,6.67
2023-05-08T03:30:22.094Z,6.62
2023-05-08T03:32:52.085Z,6.61
2023-05-08T03:35:23.521Z,6.57
2023-05-08T03:37:53.629Z,6.55
2023-05-08T03:40:21.984Z,6.53
2023-05-08T03:42:51.573Z,6.50
2023-05-08T03:45:21.181Z,6.48
2023-05-08T03:47:50.220Z,6.44
2023-05-08T03:50:18.876Z,6.40
2023-05-08T03:52:49.053Z,6.40
2023-05-08T03:55:17.569Z,6.32
2023-05-08T03:57:57.268Z,6.27
2023-05-08T04:00:33.057Z,6.23
2023-05-08T04:03:12.747Z,6.25
2023-05-08T04:05:48.203Z,6.26
2023-05-08T04:08:23.525Z,6.30
2023-05-08T04:10:58.563Z,6.32
2023-05-08T04:13:29.676Z,6.34
2023-05-08T04:16:06.332Z,6.40
2023-05-08T04:18:38.815Z,6.38
2023-05-08T04:21:11.425Z,6.35
2023-05-08T04:23:43.631Z,6.37
2023-05-08T04:26:15.210Z,6.33
2023-05-08T04:28:46.721Z,6.34
2023-05-08T04:31:15.570Z,6.34
2023-05-08T04:33:45.540Z,6.32
2023-05-08T04:36:14.806Z,6.34
2023-05-08T04:38:44.789Z,6.29
2023-05-08T04:41:13.212Z,6.29
2023-05-08T04:43:41.560Z,6.26
2023-05-08T04:46:10.207Z,6.32
2023-05-08T04:48:38.594Z,6.34
2023-05-08T04:51:07.063Z,6.35
2023-05-08T04:53:35.379Z,6.37
2023-05-08T04:56:05.659Z,6.36
2023-05-08T04:58:33.982Z,6.34
2023-05-08T05:01:03.987Z,6.26
2023-05-08T05:03:32.674Z,6.28
2023-05-08T05:06:01.414Z,6.33
2023-05-08T05:08:29.831Z,6.40
2023-05-08T05:10:58.128Z,6.47
2023-05-08T05:13:28.195Z,6.52
2023-05-08T05:15:56.692Z,6.56
2023-05-08T05:18:24.985Z,6.61
2023-05-08T05:20:53.285Z,6.72
2023-05-08T05:23:21.587Z,6.79
2023-05-08T05:25:49.868Z,6.82
2023-05-08T05:28:18.140Z,6.82
2023-05-08T05:30:49.399Z,6.89
2023-05-08T05:33:17.981Z,6.95
2023-05-08T05:35:46.306Z,7.01
2023-05-08T05:38:14.653Z,7.06
2023-05-08T05:40:43.155Z,7.13
2023-05-08T05:43:11.564Z,7.15
2023-05-08T05:45:40.116Z,7.20
2023-05-08T05:48:09.911Z,7.25
2023-05-08T05:50:38.977Z,7.36
2023-05-08T05:53:07.451Z,7.39
2023-05-08T05:55:35.724Z,7.44
2023-05-08T05:58:04.070Z,7.52
2023-05-08T06:00:32.340Z,7.60
2023-05-08T06:03:02.323Z,7.66
2023-05-08T06:05:32.668Z,7.71
2023-05-08T06:08:00.964Z,7.82
2023-05-08T06:10:29.447Z,7.91
2023-05-08T06:12:57.984Z,7.98
2023-05-08T06:15:26.806Z,8.06
2023-05-08T06:17:55.269Z,8.13
2023-05-08T06:20:25.636Z,8.20
2023-05-08T06:22:56.123Z,8.33
2023-05-08T06:25:24.688Z,8.39
2023-05-08T06:27:53.003Z,8.45
2023-05-08T06:30:21.507Z,8.47
2023-05-08T06:32:50.181Z,8.47
2023-05-08T06:35:19.392Z,8.48
2023-05-08T06:37:47.928Z,8.50
2023-05-08T06:40:17.686Z,8.60
2023-05-08T06:42:46.222Z,8.62
2023-05-08T06:45:14.792Z,8.62
2023-05-08T06:47:43.402Z,8.65
2023-05-08T06:50:12.100Z,8.65
2023-05-08T06:52:40.612Z,8.72
2023-05-08T06:55:09.731Z,8.81
2023-05-08T06:57:39.359Z,8.84
2023-05-08T07:00:09.179Z,8.90
2023-05-08T07:02:37.661Z,8.98
2023-05-08T07:05:06.952Z,9.06
2023-05-08T07:07:35.332Z,9.12
2023-05-08T07:10:05.364Z,9.18
2023-05-08T07:12:34.865Z,9.26
2023-05-08T07:15:17.810Z,9.31
2023-05-08T07:17:52.904Z,9.43
2023-05-08T07:20:21.712Z,9.51
2023-05-08T07:22:50.261Z,9.59
2023-05-08T07:25:18.607Z,9.69
2023-05-08T07:27:47.416Z,9.81
2023-05-08T07:30:17.395Z,9.98
2023-05-08T07:32:45.735Z,10.07
2023-05-08T07:35:15.370Z,10.12
2023-05-08T07:37:44.436Z,10.19
2023-05-08T07:40:12.970Z,10.24
2023-05-08T07:42:42.427Z,10.31
2023-05-08T07:45:13.162Z,10.44
2023-05-08T07:47:51.424Z,10.48
2023-05-08T07:50:20.262Z,10.53
2023-05-08T07:52:50.158Z,10.63
2023-05-08T07:55:19.461Z,10.68
2023-05-08T07:57:47.852Z,10.73
2023-05-08T08:00:17.109Z,10.84
2023-05-08T08:02:46.205Z,10.88
2023-05-08T08:05:16.191Z,10.98
2023-05-08T08:07:44.761Z,11.04
2023-05-08T08:10:13.174Z,11.14
2023-05-08T08:12:41.676Z,11.19
2023-05-08T08:15:10.989Z,11.30
2023-05-08T08:17:39.589Z,11.37
2023-05-08T08:20:09.300Z,11.50
2023-05-08T08:22:40.059Z,11.56
2023-05-08T08:25:09.361Z,11.66
2023-05-08T08:27:37.698Z,11.73
2023-05-08T08:30:17.011Z,11.80
2023-05-08T08:32:47.436Z,11.93
2023-05-08T08:35:16.799Z,11.98
2023-05-08T08:37:47.005Z,12.07
2023-05-08T08:40:15.353Z,12.18
2023-05-08T08:42:43.738Z,12.22
2023-05-08T08:45:12.657Z,12.28
2023-05-08T08:47:43.552Z,12.33
2023-05-08T08:50:14.972Z,12.37
2023-05-08T08:52:56.870Z,12.42
2023-05-08T08:55:27.324Z,12.49
2023-05-08T08:58:04.671Z,12.60
2023-05-08T09:00:34.062Z,12.66
2023-05-08T09:03:02.724Z,12.72
2023-05-08T09:05:31.726Z,12.81
2023-05-08T09:08:02.300Z,12.86
2023-05-08T09:10:30.786Z,12.86
2023-05-08T09:12:59.152Z,12.99
2023-05-08T09:15:27.523Z,12.96
2023-05-08T09:17:56.048Z,12.97
2023-05-08T09:20:24.634Z,13.00
2023-05-08T09:22:53.898Z,13.02
2023-05-08T09:25:24.548Z,13.09
2023-05-08T09:27:52.862Z,13.14
2023-05-08T09:30:21.266Z,13.15
2023-05-08T09:32:50.009Z,13.19
2023-05-08T09:35:18.389Z,13.27
2023-05-08T09:37:47.465Z,13.36
2023-05-08T09:40:17.802Z,13.52
2023-05-08T09:42:48.693Z,13.54
2023-05-08T09:45:31.104Z,13.55
2023-05-08T09:47:59.900Z,13.67
2023-05-08T09:50:28.317Z,13.87
2023-05-08T09:52:56.751Z,13.94
2023-05-08T09:55:25.402Z,14.16
2023-05-08T09:57:57.159Z,14.14
2023-05-08T10:00:26.967Z,14.18
2023-05-08T10:02:57.731Z,14.37
2023-05-08T10:05:27.829Z,14.42
2023-05-08T10:07:56.576Z,14.50
2023-05-08T10:10:27.348Z,14.57
2023-05-08T10:12:58.365Z,14.69
2023-05-08T10:15:31.184Z,14.82
2023-05-08T10:18:05.482Z,14.95
2023-05-08T10:20:34.663Z,15.15
2023-05-08T10:23:05.116Z,15.29
2023-05-08T10:25:36.373Z,15.71
2023-05-08T10:28:17.498Z,15.87
2023-05-08T10:30:50.042Z,16.17
2023-05-08T10:33:28.482Z,16.51
2023-05-08T10:35:59.690Z,16.97
2023-05-08T10:38:28.628Z,17.09
2023-05-08T10:41:01.207Z,17.48
2023-05-08T10:43:32.095Z,17.74
2023-05-08T10:46:09.247Z,17.87
2023-05-08T10:48:49.242Z,18.12
2023-05-08T10:51:24.666Z,18.04
2023-05-08T10:53:58.178Z,17.81
2023-05-08T10:56:27.406Z,18.23
2023-05-08T10:59:00.965Z,18.48
2023-05-08T11:01:29.436Z,18.84
2023-05-08T11:03:58.261Z,19.06
2023-05-08T11:06:45.891Z,19.15
2023-05-08T11:09:22.817Z,19.23
2023-05-08T11:12:05.047Z,19.51
2023-05-08T11:14:36.427Z,19.54
2023-05-08T11:17:06.857Z,19.62
2023-05-08T11:19:36.618Z,19.62
2023-05-08T11:22:16.234Z,19.76
2023-05-08T11:24:54.447Z,19.63
2023-05-08T11:27:38.085Z,19.85
2023-05-08T11:30:35.663Z,19.99
2023-05-08T11:33:17.662Z,19.93
2023-05-08T11:35:54.702Z,19.68
2023-05-08T11:38:28.313Z,19.81
2023-05-08T11:40:59.273Z,20.30
2023-05-08T11:43:59.717Z,20.57
2023-05-08T11:46:39.380Z,20.77
2023-05-08T11:49:12.367Z,20.09
2023-05-08T11:51:44.800Z,19.75
2023-05-08T11:54:15.742Z,19.75
2023-05-08T11:56:46.250Z,20.07
2023-05-08T11:59:16.858Z,20.49
2023-05-08T12:04:22.357Z,19.62
2023-05-08T12:06:51.643Z,19.36
2023-05-08T12:09:20.493Z,20.00
2023-05-08T12:11:58.083Z,20.55
2023-05-08T12:14:26.542Z,20.88
2023-05-08T12:16:56.358Z,21.37
2023-05-08T12:19:24.806Z,21.09
2023-05-08T12:21:53.149Z,20.95
2023-05-08T12:24:24.357Z,21.06
2023-05-08T12:26:56.555Z,20.89
2023-05-08T12:29:27.223Z,20.27
2023-05-08T12:31:57.383Z,20.39
2023-05-08T12:34:26.065Z,21.07
2023-05-08T12:37:03.472Z,21.74
2023-05-08T12:39:37.466Z,21.67
2023-05-08T12:42:06.045Z,21.80
2023-05-08T12:44:34.440Z,21.76
2023-05-08T12:47:06.790Z,21.75
2023-05-08T12:49:35.219Z,21.90
2023-05-08T12:52:05.085Z,21.77
2023-05-08T12:54:37.753Z,21.12
2023-05-08T12:57:12.702Z,20.84
2023-05-08T12:59:41.709Z,21.55
2023-05-08T13:02:16.413Z,22.15
2023-05-08T13:04:45.512Z,22.55
2023-05-08T13:07:14.187Z,22.03
2023-05-08T13:09:57.516Z,22.01
2023-05-08T13:12:25.856Z,21.92
2023-05-08T13:14:54.163Z,21.90
2023-05-08T13:17:24.257Z,21.62
2023-05-08T13:19:52.597Z,21.34
2023-05-08T13:22:23.052Z,21.84
2023-05-08T13:24:51.590Z,21.82
2023-05-08T13:27:20.150Z,22.58
2023-05-08T13:29:48.515Z,23.12
2023-05-08T13:32:16.892Z,23.33
2023-05-08T13:34:50.456Z,22.72
2023-05-08T13:37:20.575Z,21.79
2023-05-08T13:39:48.969Z,21.28
2023-05-08T13:42:17.299Z,21.66
2023-05-08T13:44:45.649Z,22.12
2023-05-08T13:47:14.144Z,22.30
2023-05-08T13:49:44.141Z,22.31
2023-05-08T13:52:14.200Z,22.05
2023-05-08T13:54:42.683Z,22.79
2023-05-08T13:57:12.065Z,22.46
2023-05-08T13:59:40.649Z,22.88
2023-05-08T14:02:09.126Z,22.45
2023-05-08T14:04:37.897Z,22.37
2023-05-08T14:07:06.471Z,21.99
2023-05-08T14:09:36.287Z,22.75
2023-05-08T14:12:04.913Z,22.55
2023-05-08T14:14:34.504Z,22.66
2023-05-08T14:17:03.445Z,22.47
2023-05-08T14:19:31.883Z,22.78
2023-05-08T14:22:00.514Z,22.91
2023-05-08T14:24:29.048Z,22.04
2023-05-08T14:26:59.404Z,22.00
2023-05-08T14:29:27.841Z,21.78
2023-05-08T14:31:56.293Z,22.01
2023-05-08T14:34:24.771Z,22.46
2023-05-08T14:36:53.194Z,22.45
2023-05-08T14:39:21.654Z,22.85
2023-05-08T14:44:23.186Z,21.57
2023-05-08T14:46:51.877Z,21.86
2023-05-08T14:49:32.820Z,22.03
2023-05-08T14:52:06.738Z,21.59
2023-05-08T14:54:35.287Z,21.19
2023-05-08T14:57:03.887Z,20.77
2023-05-08T14:59:33.613Z,20.83
2023-05-08T15:02:02.104Z,21.17
2023-05-08T15:04:30.698Z,21.10
2023-05-08T15:06:59.104Z,21.22
2023-05-08T15:09:27.433Z,21.06
2023-05-08T15:11:55.920Z,21.08
2023-05-08T15:14:24.438Z,20.90
2023-05-08T15:16:54.139Z,20.77
2023-05-08T15:19:22.539Z,21.24
2023-05-08T15:21:50.841Z,21.62
2023-05-08T15:24:19.398Z,21.79
2023-05-08T15:26:47.704Z,22.07
2023-05-08T15:29:16.030Z,21.53
2023-05-08T15:31:44.428Z,21.29
2023-05-08T15:34:14.118Z,20.89
2023-05-08T15:36:42.436Z,21.30
2023-05-08T15:39:10.851Z,21.44
2023-05-08T15:41:41.029Z,21.43
2023-05-08T15:44:09.397Z,21.15
2023-05-08T15:46:37.789Z,20.70
2023-05-08T15:49:06.132Z,20.59
2023-05-08T15:51:35.816Z,20.68
2023-05-08T15:54:04.396Z,20.28
2023-05-08T15:56:32.926Z,20.23
2023-05-08T15:59:01.280Z,19.78
2023-05-08T16:01:29.756Z,19.82
2023-05-08T16:03:58.197Z,19.89
2023-05-08T16:06:26.580Z,19.73
2023-05-08T16:08:56.322Z,19.47
2023-05-08T16:11:24.634Z,19.30
2023-05-08T16:13:53.066Z,19.13
2023-05-08T16:16:21.424Z,19.25
2023-05-08T16:18:49.873Z,19.06
2023-05-08T16:21:18.421Z,19.04
2023-05-08T16:23:46.870Z,19.02
2023-05-08T16:26:16.868Z,18.95
2023-05-08T16:28:45.298Z,18.92
2023-05-08T16:31:13.955Z,18.82
2023-05-08T16:33:42.750Z,18.61
2023-05-08T16:36:11.689Z,18.57
2023-05-08T16:38:40.203Z,18.47
2023-05-08T16:41:10.339Z,18.45
2023-05-08T16:43:40.442Z,18.42
2023-05-08T16:46:09.339Z,18.33
2023-05-08T16:48:38.040Z,18.21
2023-05-08T16:51:06.393Z,18.16
2023-05-08T16:53:34.862Z,18.16
2023-05-08T16:56:03.354Z,18.14
2023-05-08T16:58:31.761Z,17.97
2023-05-08T17:01:01.513Z,17.85
2023-05-08T17:03:30.364Z,17.84
2023-05-08T17:05:58.733Z,17.87
2023-05-08T17:08:27.145Z,17.88
2023-05-08T17:10:55.472Z,17.81
2023-05-08T17:13:23.853Z,17.77
2023-05-08T17:15:52.295Z,17.64
2023-05-08T17:18:22.067Z,17.66
2023-05-08T17:20:51.709Z,17.62
2023-05-08T17:23:20.131Z,17.62
2023-05-08T17:25:48.505Z,17.49
2023-05-08T17:28:16.908Z,17.49
2023-05-08T17:30:46.445Z,17.48
2023-05-08T17:33:15.415Z,17.45
2023-05-08T17:35:45.201Z,17.40
2023-05-08T17:38:13.565Z,17.32
2023-05-08T17:40:41.903Z,17.26
2023-05-08T17:43:10.576Z,17.24
2023-05-08T17:45:38.996Z,17.19
2023-05-08T17:48:08.083Z,17.10
2023-05-08T17:50:36.792Z,17.04
2023-05-08T17:53:06.834Z,16.98
2023-05-08T17:55:35.233Z,16.91
2023-05-08T17:58:03.607Z,16.81
2023-05-08T18:00:32.027Z,16.68
2023-05-08T18:03:00.794Z,16.62
2023-05-08T18:05:30.453Z,16.55
2023-05-08T18:07:59.354Z,16.51
2023-05-08T18:10:29.236Z,16.50
2023-05-08T18:12:57.656Z,16.48
2023-05-08T18:15:26.128Z,16.43
2023-05-08T18:17:54.613Z,16.40
2023-05-08T18:20:23.519Z,16.32
2023-05-08T18:22:52.040Z,16.27
2023-05-08T18:25:20.776Z,16.23
2023-05-08T18:27:51.842Z,16.15
2023-05-08T18:30:20.225Z,16.07
2023-05-08T18:32:48.585Z,16.01
2023-05-08T18:35:17.895Z,15.95
2023-05-08T18:37:46.245Z,15.88
2023-05-08T18:40:15.224Z,15.78
2023-05-08T18:42:43.761Z,15.75
2023-05-08T18:45:13.847Z,15.73
2023-05-08T18:47:42.352Z,15.65
2023-05-08T18:50:11.767Z,15.56
2023-05-08T18:52:40.818Z,15.49
2023-05-08T18:55:10.236Z,15.43
2023-05-08T18:57:38.689Z,15.39
2023-05-08T19:00:08.304Z,15.24
2023-05-08T19:02:38.321Z,15.23
2023-05-08T19:05:07.804Z,15.20
2023-05-08T19:07:36.510Z,15.10
2023-05-08T19:10:05.537Z,14.96
2023-05-08T19:12:34.039Z,14.89
2023-05-08T19:15:02.353Z,14.88
2023-05-08T19:17:30.873Z,14.72
2023-05-08T19:20:00.570Z,14.56
2023-05-08T19:22:28.937Z,14.45
2023-05-08T19:24:57.481Z,14.38
2023-05-08T19:27:26.126Z,14.29
2023-05-08T19:29:54.674Z,14.28
2023-05-08T19:32:23.161Z,14.22
2023-05-08T19:34:51.574Z,14.15
2023-05-08T19:37:21.646Z,14.07
2023-05-08T19:39:49.989Z,14.01
2023-05-08T19:42:18.375Z,13.92
2023-05-08T19:44:46.710Z,13.91
2023-05-08T19:47:15.511Z,13.86
2023-05-08T19:49:44.158Z,13.82
2023-05-08T19:52:12.517Z,13.76
2023-05-08T19:54:43.415Z,13.64
2023-05-08T19:57:11.973Z,13.59
2023-05-08T19:59:40.415Z,13.56
2023-05-08T20:02:08.929Z,13.49
2023-05-08T20:04:54.499Z,13.40
2023-05-08T20:07:26.089Z,13.31
2023-05-08T20:09:56.096Z,13.26
2023-05-08T20:12:24.673Z,13.18
2023-05-08T20:14:53.424Z,13.11
2023-05-08T20:17:21.929Z,13.08
2023-05-08T20:19:50.438Z,13.02
2023-05-08T20:22:18.773Z,12.91
2023-05-08T20:24:47.145Z,12.88
2023-05-08T20:27:16.883Z,12.85
2023-05-08T20:29:45.441Z,12.82
2023-05-08T20:32:16.294Z,12.74
2023-05-08T20:34:45.101Z,12.72
2023-05-08T20:37:15.817Z,12.69
2023-05-08T20:39:45.087Z,12.64
2023-05-08T20:42:13.457Z,12.59
2023-05-08T20:44:43.266Z,12.53
2023-05-08T20:47:11.816Z,12.48
2023-05-08T20:49:40.155Z,12.46
2023-05-08T20:52:08.475Z,12.41
2023-05-08T20:54:36.968Z,12.37
2023-05-08T20:57:05.503Z,12.44
2023-05-08T20:59:33.797Z,12.44
2023-05-08T21:02:03.542Z,12.42
2023-05-08T21:04:32.010Z,12.38
2023-05-08T21:07:00.701Z,12.25
2023-05-08T21:09:29.128Z,12.27
2023-05-08T21:11:57.487Z,12.24
2023-05-08T21:14:25.860Z,12.26
2023-05-08T21:16:54.928Z,12.25
2023-05-08T21:19:24.653Z,12.23
2023-05-08T21:21:52.976Z,12.25
2023-05-08T21:24:21.894Z,12.19
2023-05-08T21:26:50.222Z,12.11
2023-05-08T21:29:18.540Z,12.04
2023-05-08T21:31:46.942Z,11.95
2023-05-08T21:34:16.370Z,11.98
2023-05-08T21:36:45.991Z,12.03
2023-05-08T21:39:14.849Z,12.01
2023-05-08T21:41:43.713Z,12.02
2023-05-08T21:44:12.896Z,11.89
2023-05-08T21:46:41.270Z,11.92
2023-05-08T21:49:10.117Z,11.82
2023-05-08T21:51:38.434Z,11.79
2023-05-08T21:54:08.152Z,11.68
2023-05-08T21:56:36.461Z,11.68
2023-05-08T21:59:04.776Z,11.68
2023-05-08T22:01:33.346Z,11.56
2023-05-08T22:04:01.923Z,11.50
2023-05-08T22:06:30.466Z,11.46
2023-05-08T22:08:59.051Z,11.45
2023-05-08T22:11:28.753Z,11.41
2023-05-08T22:13:57.043Z,11.28
2023-05-08T22:16:25.396Z,11.22
2023-05-08T22:18:53.714Z,11.16
2023-05-08T22:21:22.040Z,11.17
2023-05-08T22:23:50.339Z,11.06
2023-05-08T22:26:19.832Z,11.06
2023-05-08T22:28:49.679Z,10.99
2023-05-08T22:31:17.982Z,11.03
2023-05-08T22:33:46.624Z,11.05
2023-05-08T22:36:14.892Z,11.04
2023-05-08T22:38:43.178Z,10.98
2023-05-08T22:41:11.744Z,10.88
2023-05-08T22:43:40.056Z,10.82
2023-05-08T22:46:09.905Z,10.77
2023-05-08T22:48:38.485Z,10.78
2023-05-08T22:51:07.664Z,10.83
2023-05-08T22:53:36.163Z,10.83
2023-05-08T22:56:04.817Z,10.78
2023-05-08T22:58:33.128Z,10.82
2023-05-08T23:01:01.560Z,10.83
2023-05-08T23:03:31.796Z,10.78
2023-05-08T23:06:00.126Z,10.78
2023-05-08T23:08:28.421Z,10.79
2023-05-08T23:10:56.782Z,10.75
2023-05-08T23:13:25.114Z,10.66
2023-05-08T23:15:53.480Z,10.63
2023-05-08T23:18:21.810Z,10.59
2023-05-08T23:20:51.471Z,10.59
2023-05-08T23:23:19.775Z,10.49
2023-05-08T23:25:48.093Z,10.49
2023-05-08T23:28:16.411Z,10.46
2023-05-08T23:30:44.727Z,10.42
2023-05-08T23:33:13.064Z,10.39
2023-05-08T23:35:41.358Z,10.37
2023-05-08T23:38:11.115Z,10.27
2023-05-08T23:40:39.408Z,10.11
2023-05-08T23:43:07.737Z,9.99
2023-05-08T23:45:36.090Z,9.98
2023-05-08T23:48:04.696Z,9.98
2023-05-08T23:50:33.072Z,9.91
2023-05-08T23:53:01.708Z,9.83
2023-05-08T23:55:31.619Z,9.77
2023-05-08T23:57:59.909Z,9.76
